Compagnie Fsx-France! Un nouveau look pour votre VA, par: Julien & Co




 METAR ET TAF INFORMATION
METAR FOR KSVE
ADDS - METARS form results

(1242 UTC 26 May 2020)
Data provider http://aviationweather.gov/metar/data/
 
METAR text: KSVE 261235Z AUTO 28003KT 10SM CLR 11/07 A3009 RMK AO2
Conditions at: KSVE (SUSANVILLE MUNI , CA, US) observed 1235 UTC 26 May 2020
Temperature: 11.0°C (52°F)
Dewpoint: 7.0°C (45°F) [RH = 76%]
Pressure (altimeter): 30.09 inches Hg (1019.0 mb)
Winds: from the W (280 degrees) at 3 MPH (3 knots; 1.5 m/s)
Visibility: 10 or more miles (16+ km)
Ceiling: at least 12,000 feet AGL
Clouds: sky clear below 12,000 feet AGL
Weather: automated observation with no human augmentation;
there may or may not be significant weather present at this time

METAR text: KSVE 261215Z AUTO 29005KT 10SM CLR 11/08 A3009 RMK AO2
Conditions at: KSVE (SUSANVILLE MUNI , CA, US) observed 1215 UTC 26 May 2020
Temperature: 11.0°C (52°F)
Dewpoint: 8.0°C (46°F) [RH = 82%]
Pressure (altimeter): 30.09 inches Hg (1019.0 mb)
Winds: from the WNW (290 degrees) at 6 MPH (5 knots; 2.6 m/s)
Visibility: 10 or more miles (16+ km)
Ceiling: at least 12,000 feet AGL
Clouds: sky clear below 12,000 feet AGL
Weather: automated observation with no human augmentation;
there may or may not be significant weather present at this time

METAR text: KSVE 261155Z AUTO 28004KT 10SM CLR 11/07 A3009 RMK AO2
Conditions at: KSVE (SUSANVILLE MUNI , CA, US) observed 1155 UTC 26 May 2020
Temperature: 11.0°C (52°F)
Dewpoint: 7.0°C (45°F) [RH = 76%]
Pressure (altimeter): 30.09 inches Hg (1019.0 mb)
Winds: from the W (280 degrees) at 5 MPH (4 knots; 2.1 m/s)
Visibility: 10 or more miles (16+ km)
Ceiling: at least 12,000 feet AGL
Clouds: sky clear below 12,000 feet AGL
Weather: automated observation with no human augmentation;
there may or may not be significant weather present at this time

 AÉROPORT DE AÉROPORT

 INFORMATIONS DE PISTE
Piste 07 Longueur de la piste 664 m = 2179 ft Largeur de la piste 18 m = 60 ft
Élévation de la piste 4149 ft Seuil de la piste déplacés 0 ft Runway heading 89
Piste 25 Longueur de la piste 664 m = 2179 ft Largeur de la piste 18 m = 60 ft
Élévation de la piste 4131 ft Seuil de la piste déplacés 0 ft Runway heading 269
Piste 11 Longueur de la piste 1234 m = 4049 ft Largeur de la piste 23 m = 75 ft
Élévation de la piste 4147 ft Seuil de la piste déplacés 0 ft Runway heading 129
Piste 29 Longueur de la piste 1234 m = 4049 ft Largeur de la piste 23 m = 75 ft
Élévation de la piste 4122 ft Seuil de la piste déplacés 0 ft Runway heading 309

 AÉROPORT FRÉQUENCES
Type AWOS Nom AWOS 3 Féquence 133.8 MHZ
Type CNTR Nom OAKLAND CN Féquence 128.8 MHZ
Type UNIC Nom CTAF/UNICO Féquence 122.8 MHZ

 AIDES A LA NAVIGATION